Aviation Digital Data Service (ADDS)

Output produced by METARs form (1745 UTC 24 June 2019)
found at http://www.aviationweather.gov/metar/data/
 
Forecast for: HEBA (ALEXANDRIA BORG , EG)
Text: TAF HEBA 241700Z 2418/2524 33009KT CAVOK
Forecast period: 1800 UTC 24 June 2019 to 0000 UTC 26 June 2019
Forecast type: FROM: standard forecast or significant change
Winds: from the NNW (330 degrees) at 10 MPH (9 knots; 4.6 m/s)
Visibility: 6 or more miles 10+ km)
Ceiling: unknown
Clouds: missing
Weather: NSW  (no significant weather)